Overview Statistics Trail Chart Weather Telemetry Raw packets
 

This is the latest recevied weather packets stored in our database for station/object DL2GFH-3. If no packets are shown the sender has not sent any weather packets the latest 10 day(s).

<< 4 5 6 7 8 9 10 >>
Time Temp. Humidity Pressure Rain* Wind** Luminosity Snow
1777605556 18.89° C 19% 1023.7 hPa - - - -
1777604650 20.56° C 18% 1023.5 hPa - - - -
1777603745 21.11° C 18% 1023.6 hPa - - - -
1777602839 15° C 24% 1023.9 hPa - - - -
1777601934 14.44° C 24% 1023.9 hPa - - - -
1777601029 15° C 24% 1024 hPa - - - -
1777600123 15.56° C 24% 1023.8 hPa - - - -
1777599218 15.56° C 23% 1023.8 hPa - - - -
1777598312 16.67° C 22% 1023.8 hPa - - - -
1777597417 16.67° C 22% 1023.8 hPa - - - -
1777596502 16.11° C 23% 1023.8 hPa - - - -
1777595596 16.11° C 23% 1023.9 hPa - - - -
1777594691 15.56° C 24% 1023.9 hPa - - - -
1777593785 15.56° C 24% 1023.8 hPa - - - -
1777592880 16.11° C 23% 1023.7 hPa - - - -
1777591975 15.56° C 24% 1023.6 hPa - - - -
1777591069 15.56° C 24% 1023.7 hPa - - - -
1777590164 15.56° C 23% 1023.7 hPa - - - -
1777589258 16.11° C 23% 1023.6 hPa - - - -
1777588353 16.11° C 23% 1023.9 hPa - - - -
1777587447 16.11° C 23% 1023.9 hPa - - - -
1777586542 16.67° C 23% 1023.8 hPa - - - -
1777585637 16.67° C 24% 1023.9 hPa - - - -
1777584731 16.67° C 23% 1023.8 hPa - - - -
1777583826 17.22° C 23% 1023.8 hPa - - - -

* Rain since midnight (hover to see other rain measurements)
** Current wind speed in m/s (hover to see current wind gust speed)